createdAt,value
2023-02-16T00:02:36.401Z,96.91504
2023-02-16T00:07:33.161Z,96.80664
2023-02-16T00:12:44.493Z,96.74609
2023-02-16T00:17:33.165Z,96.85254
2023-02-16T00:22:33.162Z,96.64355
2023-02-16T00:27:35.966Z,96.91406
2023-02-16T00:32:37.779Z,96.88184
2023-02-16T00:37:33.995Z,96.99121
2023-02-16T00:42:35.948Z,96.79102
2023-02-16T00:47:37.093Z,96.75488
2023-02-16T00:52:42.769Z,96.64844
2023-02-16T00:57:37.947Z,97.05664
2023-02-16T01:02:33.400Z,96.93555
2023-02-16T01:07:44.579Z,96.82324
2023-02-16T01:12:33.277Z,97.0752
2023-02-16T01:17:33.415Z,96.7998
2023-02-16T01:22:35.118Z,97.06348
2023-02-16T01:27:33.647Z,97.43945
2023-02-16T01:32:33.525Z,97.24414
2023-02-16T01:37:33.163Z,97.27734
2023-02-16T01:42:41.598Z,97.43262
2023-02-16T01:47:37.976Z,97.43945
2023-02-16T01:52:36.188Z,97.63086
2023-02-16T01:57:39.910Z,97.68164
2023-02-16T02:02:37.978Z,97.73926
2023-02-16T02:07:35.864Z,97.48438
2023-02-16T02:12:40.842Z,97.57031
2023-02-16T02:17:33.181Z,97.49609
2023-02-16T02:23:07.803Z,97.48242
2023-02-16T02:27:36.935Z,97.54688
2023-02-16T02:32:38.698Z,97.4668
2023-02-16T02:37:40.382Z,97.47656
2023-02-16T02:42:38.769Z,97.45898
2023-02-16T02:47:44.910Z,97.5498
2023-02-16T02:52:33.393Z,97.63477
2023-02-16T02:57:47.943Z,97.47754
2023-02-16T03:02:34.354Z,97.70508
2023-02-16T03:07:44.933Z,97.67871
2023-02-16T03:12:47.456Z,97.6543
2023-02-16T03:17:46.759Z,97.66211
2023-02-16T03:22:44.962Z,97.69629
2023-02-16T03:27:46.809Z,97.56641
2023-02-16T03:32:34.317Z,97.6416
2023-02-16T03:37:33.084Z,97.69141
2023-02-16T03:42:33.154Z,97.67773
2023-02-16T03:47:33.379Z,97.59277
2023-02-16T03:52:33.001Z,97.66406
2023-02-16T03:57:33.097Z,97.60547
2023-02-16T04:02:33.268Z,97.57617
2023-02-16T04:07:35.981Z,97.56738
2023-02-16T04:12:42.415Z,97.73438
2023-02-16T04:17:33.145Z,97.68066
2023-02-16T04:22:33.019Z,97.58496
2023-02-16T04:27:33.121Z,97.86719
2023-02-16T04:32:34.319Z,98.06836
2023-02-16T04:37:35.684Z,98.06152
2023-02-16T04:42:35.105Z,98.05762
2023-02-16T04:47:33.197Z,98.26367
2023-02-16T04:52:33.986Z,98.01563
2023-02-16T04:57:32.981Z,98.19336
2023-02-16T05:02:35.522Z,98.03418
2023-02-16T05:07:33.451Z,98.11035
2023-02-16T05:12:45.552Z,97.87109
2023-02-16T05:17:33.119Z,97.98242
2023-02-16T05:22:34.098Z,97.98242
2023-02-16T05:27:34.158Z,97.98242
2023-02-16T05:32:33.056Z,98.00977
2023-02-16T05:37:33.210Z,98.14258
2023-02-16T05:42:35.763Z,98.03613
2023-02-16T05:47:33.549Z,98.10547
2023-02-16T05:52:33.252Z,98.10547
2023-02-16T05:57:34.704Z,98.18359
2023-02-16T06:02:33.039Z,98.31836
2023-02-16T06:07:33.226Z,98.26758
2023-02-16T06:12:34.394Z,98.22852
2023-02-16T06:17:33.204Z,98.25
2023-02-16T06:22:33.025Z,98.39746
2023-02-16T06:27:33.486Z,98.28027
2023-02-16T06:32:33.655Z,98.20801
2023-02-16T06:37:33.117Z,98.33203
2023-02-16T06:42:33.331Z,98.34668
2023-02-16T06:47:33.164Z,98.30957
2023-02-16T06:52:32.993Z,98.45313
2023-02-16T06:57:33.000Z,98.47266
2023-02-16T07:02:33.074Z,98.45508
2023-02-16T07:07:33.029Z,98.44824
2023-02-16T07:12:35.529Z,98.55176
2023-02-16T07:17:33.271Z,98.47949
2023-02-16T07:22:33.570Z,98.58203
2023-02-16T07:27:33.207Z,98.59961
2023-02-16T07:32:33.203Z,98.50781
2023-02-16T07:37:34.217Z,98.54395
2023-02-16T07:42:33.528Z,98.75684
2023-02-16T07:47:33.162Z,98.81543
2023-02-16T07:52:33.442Z,98.89844
2023-02-16T07:57:35.365Z,98.76465
2023-02-16T08:02:33.647Z,98.92188
2023-02-16T08:07:33.061Z,98.84961
2023-02-16T08:12:33.051Z,98.98633
2023-02-16T08:17:35.606Z,99.125
2023-02-16T08:22:33.195Z,99.13184
2023-02-16T08:27:33.477Z,99.32324
2023-02-16T08:32:33.120Z,99.21387
2023-02-16T08:37:35.473Z,99.3584
2023-02-16T08:42:33.041Z,99.23633
2023-02-16T08:47:34.062Z,99.2793
2023-02-16T08:52:33.085Z,99.72168
2023-02-16T08:57:33.049Z,100
2023-02-16T09:02:36.403Z,99.83398
2023-02-16T09:07:35.711Z,100
2023-02-16T09:12:35.112Z,100
2023-02-16T09:17:33.147Z,99.96973
2023-02-16T09:22:32.957Z,99.97559
2023-02-16T09:27:34.538Z,100
2023-02-16T09:32:36.609Z,100
2023-02-16T09:37:33.079Z,100
2023-02-16T09:42:37.859Z,100
2023-02-16T09:47:34.423Z,100
2023-02-16T09:52:39.989Z,100
2023-02-16T09:57:40.463Z,100
2023-02-16T10:02:39.363Z,100
2023-02-16T10:07:36.068Z,100
2023-02-16T10:12:36.317Z,100
2023-02-16T10:17:37.636Z,100
2023-02-16T10:22:36.636Z,100
2023-02-16T10:27:40.974Z,100
2023-02-16T10:32:43.665Z,100
2023-02-16T10:37:41.135Z,100
2023-02-16T10:42:35.807Z,99.76953
2023-02-16T10:47:36.737Z,99.67773
2023-02-16T10:52:35.779Z,99.62109
2023-02-16T10:57:35.627Z,99.15332
2023-02-16T11:02:38.802Z,98.88574
2023-02-16T11:07:34.666Z,98.76172
2023-02-16T11:12:36.862Z,98.35742
2023-02-16T11:17:34.198Z,98.09473
2023-02-16T11:22:39.502Z,97.96191
2023-02-16T11:27:33.107Z,97.51074
2023-02-16T11:32:37.996Z,97.1123
2023-02-16T11:37:35.499Z,96.96582
2023-02-16T11:42:37.058Z,96.76465
2023-02-16T11:47:35.047Z,96.66309
2023-02-16T11:52:36.500Z,96.33691
2023-02-16T11:57:34.194Z,95.84668
2023-02-16T12:02:44.829Z,95.79785
2023-02-16T12:07:36.721Z,95.16895
2023-02-16T12:12:36.077Z,94.63672
2023-02-16T12:17:39.847Z,94.39941
2023-02-16T12:22:37.800Z,93.96777
2023-02-16T12:27:37.349Z,93.62891
2023-02-16T12:32:48.408Z,92.625
2023-02-16T12:37:36.172Z,93.03516
2023-02-16T12:42:41.735Z,92.28418
2023-02-16T12:47:36.352Z,92.41992
2023-02-16T12:52:39.232Z,91.52832
2023-02-16T12:57:35.334Z,91.56641
2023-02-16T13:02:36.806Z,91.13477
2023-02-16T13:07:34.874Z,91.19922
2023-02-16T13:12:35.492Z,91.6748
2023-02-16T13:17:35.752Z,91.34766
2023-02-16T13:22:41.521Z,91.21094
2023-02-16T13:27:41.604Z,90.67578
2023-02-16T13:32:49.781Z,90.91504
2023-02-16T13:37:40.236Z,91.23145
2023-02-16T13:42:59.707Z,90.41211
2023-02-16T13:47:33.995Z,90.625
2023-02-16T13:52:40.918Z,90.72363
2023-02-16T13:57:44.726Z,91.18945
2023-02-16T14:02:44.194Z,91.27344
2023-02-16T14:07:41.566Z,91.00098
2023-02-16T14:12:36.127Z,91.99609
2023-02-16T14:17:35.331Z,92.34473
2023-02-16T14:22:37.065Z,93.44336
2023-02-16T14:27:51.316Z,93.78418
2023-02-16T14:32:38.342Z,95.65918
2023-02-16T14:37:39.153Z,94.87305
2023-02-16T14:42:35.795Z,96.56152
2023-02-16T14:47:40.777Z,96.35254
2023-02-16T14:52:49.784Z,97.73438
2023-02-16T14:57:37.094Z,98.48633
2023-02-16T15:02:34.916Z,98.62598
2023-02-16T15:07:34.693Z,99.15137
2023-02-16T15:12:37.052Z,100
2023-02-16T15:17:35.643Z,99.93066
2023-02-16T15:22:33.213Z,100
2023-02-16T15:27:34.157Z,100
2023-02-16T15:32:36.894Z,100
2023-02-16T15:37:37.760Z,100
2023-02-16T15:42:34.008Z,100
2023-02-16T15:47:33.728Z,100
2023-02-16T15:52:37.602Z,100
2023-02-16T15:57:35.864Z,100
2023-02-16T16:02:38.540Z,100
2023-02-16T16:07:39.661Z,100
2023-02-16T16:12:33.262Z,100
2023-02-16T16:17:34.307Z,100
2023-02-16T16:22:45.744Z,100
2023-02-16T16:27:36.878Z,100
2023-02-16T16:32:33.612Z,100
2023-02-16T16:37:35.021Z,100
2023-02-16T16:42:33.436Z,100
2023-02-16T16:47:34.628Z,100
2023-02-16T16:52:46.534Z,100
2023-02-16T16:57:33.612Z,100
2023-02-16T17:02:33.103Z,100
2023-02-16T17:07:33.163Z,100
2023-02-16T17:12:33.381Z,100
2023-02-16T17:17:32.902Z,100
2023-02-16T17:22:34.111Z,100
2023-02-16T17:27:35.266Z,100
2023-02-16T17:32:32.918Z,100
2023-02-16T17:37:33.103Z,100
2023-02-16T17:42:33.170Z,100
2023-02-16T17:47:35.259Z,100
2023-02-16T17:52:32.934Z,100
2023-02-16T17:57:33.020Z,100
2023-02-16T18:02:33.019Z,100
2023-02-16T18:07:33.897Z,100
2023-02-16T18:12:32.893Z,100
2023-02-16T18:17:39.057Z,100
2023-02-16T18:22:32.829Z,100
2023-02-16T18:27:33.047Z,100
2023-02-16T18:32:32.881Z,100
2023-02-16T18:37:35.482Z,100
2023-02-16T18:42:32.777Z,100
2023-02-16T18:47:33.059Z,100
2023-02-16T18:52:32.799Z,100
2023-02-16T18:57:33.004Z,100
2023-02-16T19:02:33.260Z,100
2023-02-16T19:07:32.974Z,100
2023-02-16T19:12:32.921Z,100
2023-02-16T19:17:34.011Z,100
2023-02-16T19:22:36.525Z,100
2023-02-16T19:27:35.534Z,100
2023-02-16T19:32:32.806Z,100
2023-02-16T19:37:33.082Z,100
2023-02-16T19:42:32.785Z,100
2023-02-16T19:47:34.428Z,100
2023-02-16T19:52:33.748Z,100
2023-02-16T19:57:33.045Z,100
2023-02-16T20:02:33.108Z,100
2023-02-16T20:07:33.158Z,100
2023-02-16T20:12:32.754Z,100
2023-02-16T20:17:32.819Z,100
2023-02-16T20:22:34.585Z,100
2023-02-16T20:27:32.874Z,100
2023-02-16T20:32:33.038Z,100
2023-02-16T20:37:33.067Z,100
2023-02-16T20:42:32.840Z,100
2023-02-16T20:47:33.260Z,100
2023-02-16T20:52:32.749Z,100
2023-02-16T20:57:32.766Z,100
2023-02-16T21:02:40.187Z,100
2023-02-16T21:07:33.468Z,100
2023-02-16T21:12:32.810Z,100
2023-02-16T21:17:33.379Z,100
2023-02-16T21:22:34.516Z,100
2023-02-16T21:27:32.844Z,100
2023-02-16T21:32:32.920Z,100
2023-02-16T21:37:35.262Z,100
2023-02-16T21:42:33.038Z,100
2023-02-16T21:47:47.358Z,100
2023-02-16T21:52:34.842Z,100
2023-02-16T21:57:33.729Z,100
2023-02-16T22:02:32.790Z,100
2023-02-16T22:07:32.935Z,100
2023-02-16T22:12:33.058Z,100
2023-02-16T22:17:32.992Z,100
2023-02-16T22:22:35.267Z,100
2023-02-16T22:27:33.800Z,100
2023-02-16T22:32:32.763Z,100
2023-02-16T22:37:32.738Z,100
2023-02-16T22:42:32.997Z,100
2023-02-16T22:47:33.095Z,100
2023-02-16T22:52:36.251Z,100
2023-02-16T22:57:35.478Z,100
2023-02-16T23:02:32.780Z,100
2023-02-16T23:07:32.811Z,100
2023-02-16T23:12:32.767Z,100
2023-02-16T23:17:32.696Z,100
2023-02-16T23:22:37.144Z,100
2023-02-16T23:27:35.714Z,100
2023-02-16T23:32:32.770Z,100
2023-02-16T23:37:35.524Z,100
2023-02-16T23:42:33.031Z,100
2023-02-16T23:47:34.555Z,100
2023-02-16T23:52:39.182Z,100
2023-02-16T23:57:33.407Z,100
